This is the latest recevied weather packets stored in our database for station/object M0TUM-1. If no packets are shown the sender has not sent any weather packets the latest 10 day(s).
| Time | Temp. | Humidity | Pressure | Rain* | Wind** | Luminosity | Snow |
|---|---|---|---|---|---|---|---|
| 1777722197 | 20° C | 50% | 1016.2 hPa | 0 mm | - | 592 W/m² | - |
| 1777721894 | 20° C | 49% | 1016.2 hPa | 0 mm | - | 636 W/m² | - |
| 1777721592 | 20° C | 51% | 1016.5 hPa | 0 mm | - | 670 W/m² | - |
| 1777721290 | 19.44° C | 50% | 1016.1 hPa | 0 mm | - | 704 W/m² | - |
| 1777720987 | 18.89° C | 54% | 1016.4 hPa | 0 mm | - | 721 W/m² | - |
| 1777720684 | 18.89° C | 54% | 1016.4 hPa | 0 mm | - | 253 W/m² | - |
| 1777720382 | 20° C | 51% | 1016.5 hPa | 0 mm | - | 400 W/m² | - |
| 1777720079 | 19.44° C | 53% | 1016.4 hPa | 0 mm | - | 779 W/m² | - |
| 1777719777 | 17.78° C | 57% | 1016.4 hPa | 0 mm | - | 718 W/m² | - |
| 1777719474 | 18.33° C | 56% | 1016.4 hPa | 0 mm | - | 204 W/m² | - |
| 1777719170 | 18.33° C | 56% | 1016.5 hPa | 0 mm | - | 537 W/m² | - |
| 1777718868 | 18.33° C | 56% | 1016.5 hPa | 0 mm | - | 193 W/m² | - |
| 1777718566 | 18.89° C | 56% | 1016.7 hPa | 0 mm | - | 219 W/m² | - |
| 1777718263 | 18.89° C | 56% | 1016.6 hPa | 0 mm | - | 349 W/m² | - |
| 1777717960 | 19.44° C | 55% | 1016.8 hPa | 0 mm | - | 241 W/m² | - |
| 1777717657 | 18.33° C | 58% | 1016.8 hPa | 0 mm | - | 797 W/m² | - |
| 1777717353 | 18.33° C | 57% | 1016.7 hPa | 0 mm | - | 762 W/m² | - |
| 1777717052 | 17.78° C | 57% | 1016.8 hPa | 0 mm | - | 724 W/m² | - |
| 1777716750 | 18.33° C | 60% | 1016.6 hPa | 0 mm | - | 460 W/m² | - |
| 1777716448 | 17.78° C | 60% | 1016.9 hPa | 0 mm | - | 655 W/m² | - |
| 1777716146 | 17.78° C | 61% | 1016.7 hPa | 0 mm | - | 685 W/m² | - |
| 1777715844 | 17.22° C | 62% | 1016.8 hPa | 0 mm | - | 691 W/m² | - |
| 1777715541 | 17.22° C | 61% | 1016.9 hPa | 0 mm | - | 505 W/m² | - |
| 1777715238 | 16.67° C | 62% | 1016.8 hPa | 0 mm | - | 435 W/m² | - |
| 1777714936 | 16.67° C | 62% | 1016.9 hPa | 0 mm | - | 445 W/m² | - |
* Rain latest hour (hover to see other rain measurements)
** Current wind speed in m/s (hover to see current wind gust speed)